sensor_id;sensor_type;location;lat;lon;timestamp;P1;durP1;ratioP1;P2;durP2;ratioP2
62106;SDS011;48087;32.600;-97.100;2023-02-01T00:05:09;18;;;16;;
62106;SDS011;48087;32.600;-97.100;2023-02-01T00:49:31;20;;;17;;
62106;SDS011;48087;32.600;-97.100;2023-02-01T01:11:43;26;;;23;;
62106;SDS011;48087;32.600;-97.100;2023-02-01T01:33:55;23;;;20;;
62106;SDS011;48087;32.600;-97.100;2023-02-01T01:56:05;27;;;23;;
62106;SDS011;48087;32.600;-97.100;2023-02-01T02:18:18;25;;;22;;
62106;SDS011;48087;32.600;-97.100;2023-02-01T02:40:31;23;;;20;;
62106;SDS011;48087;32.600;-97.100;2023-02-01T03:02:39;28;;;24;;
62106;SDS011;48087;32.600;-97.100;2023-02-01T03:24:51;26;;;23;;
62106;SDS011;48087;32.600;-97.100;2023-02-01T03:47:03;24;;;21;;
62106;SDS011;48087;32.600;-97.100;2023-02-01T04:09:14;29;;;25;;
62106;SDS011;48087;32.600;-97.100;2023-02-01T04:31:26;27;;;23;;
62106;SDS011;48087;32.600;-97.100;2023-02-01T04:53:37;27;;;23;;
62106;SDS011;48087;32.600;-97.100;2023-02-01T05:15:49;24;;;21;;
62106;SDS011;48087;32.600;-97.100;2023-02-01T05:38:00;20;;;17;;
62106;SDS011;48087;32.600;-97.100;2023-02-01T06:00:11;23;;;20;;
62106;SDS011;48087;32.600;-97.100;2023-02-01T06:22:23;23;;;20;;
62106;SDS011;48087;32.600;-97.100;2023-02-01T06:44:34;18;;;16;;
62106;SDS011;48087;32.600;-97.100;2023-02-01T07:06:45;15;;;14;;
62106;SDS011;48087;32.600;-97.100;2023-02-01T07:28:57;15;;;14;;
62106;SDS011;48087;32.600;-97.100;2023-02-01T07:51:09;19;;;17;;
62106;SDS011;48087;32.600;-97.100;2023-02-01T08:13:20;18;;;16;;
62106;SDS011;48087;32.600;-97.100;2023-02-01T08:35:32;14;;;14;;
62106;SDS011;48087;32.600;-97.100;2023-02-01T08:57:42;14;;;14;;
62106;SDS011;48087;32.600;-97.100;2023-02-01T09:19:54;18;;;16;;
62106;SDS011;48087;32.600;-97.100;2023-02-01T09:42:08;11;;;11;;
62106;SDS011;48087;32.600;-97.100;2023-02-01T10:04:16;13;;;13;;
62106;SDS011;48087;32.600;-97.100;2023-02-01T10:26:29;13;;;13;;
62106;SDS011;48087;32.600;-97.100;2023-02-01T10:48:39;11;;;11;;
62106;SDS011;48087;32.600;-97.100;2023-02-01T11:10:56;11;;;11;;
62106;SDS011;48087;32.600;-97.100;2023-02-01T11:33:01;13;;;13;;
62106;SDS011;48087;32.600;-97.100;2023-02-01T11:55:16;13;;;13;;
62106;SDS011;48087;32.600;-97.100;2023-02-01T12:17:38;13;;;13;;
62106;SDS011;48087;32.600;-97.100;2023-02-01T12:39:37;13;;;13;;
62106;SDS011;48087;32.600;-97.100;2023-02-01T13:01:48;13;;;13;;
62106;SDS011;48087;32.600;-97.100;2023-02-01T13:23:58;13;;;13;;
62106;SDS011;48087;32.600;-97.100;2023-02-01T13:46:09;11;;;11;;
62106;SDS011;48087;32.600;-97.100;2023-02-01T14:08:22;13;;;13;;
62106;SDS011;48087;32.600;-97.100;2023-02-01T14:30:32;13;;;13;;
62106;SDS011;48087;32.600;-97.100;2023-02-01T14:52:45;13;;;13;;
62106;SDS011;48087;32.600;-97.100;2023-02-01T15:15:03;14;;;14;;
62106;SDS011;48087;32.600;-97.100;2023-02-01T15:37:07;14;;;14;;
62106;SDS011;48087;32.600;-97.100;2023-02-01T15:59:19;15;;;14;;
62106;SDS011;48087;32.600;-97.100;2023-02-01T16:21:30;17;;;15;;
62106;SDS011;48087;32.600;-97.100;2023-02-01T16:43:42;18;;;16;;
62106;SDS011;48087;32.600;-97.100;2023-02-01T17:05:55;18;;;16;;
62106;SDS011;48087;32.600;-97.100;2023-02-01T17:28:07;14;;;14;;
62106;SDS011;48087;32.600;-97.100;2023-02-01T17:50:19;13;;;13;;
62106;SDS011;48087;32.600;-97.100;2023-02-01T18:12:31;18;;;16;;
62106;SDS011;48087;32.600;-97.100;2023-02-01T18:34:43;15;;;14;;
62106;SDS011;48087;32.600;-97.100;2023-02-01T18:56:55;19;;;17;;
62106;SDS011;48087;32.600;-97.100;2023-02-01T19:19:08;19;;;17;;
62106;SDS011;48087;32.600;-97.100;2023-02-01T19:20:18;22;;;19;;
62106;SDS011;48087;32.600;-97.100;2023-02-01T19:42:30;22;;;19;;
62106;SDS011;48087;32.600;-97.100;2023-02-01T20:04:42;23;;;20;;
62106;SDS011;48087;32.600;-97.100;2023-02-01T20:26:54;22;;;19;;
62106;SDS011;48087;32.600;-97.100;2023-02-01T20:49:06;24;;;21;;
62106;SDS011;48087;32.600;-97.100;2023-02-01T21:11:19;25;;;22;;
62106;SDS011;48087;32.600;-97.100;2023-02-01T21:33:31;22;;;19;;
62106;SDS011;48087;32.600;-97.100;2023-02-01T21:55:42;24;;;21;;
62106;SDS011;48087;32.600;-97.100;2023-02-01T22:17:55;30;;;26;;
62106;SDS011;48087;32.600;-97.100;2023-02-01T22:40:07;27;;;23;;
62106;SDS011;48087;32.600;-97.100;2023-02-01T23:02:18;30;;;26;;
62106;SDS011;48087;32.600;-97.100;2023-02-01T23:24:30;29;;;25;;
62106;SDS011;48087;32.600;-97.100;2023-02-01T23:46:42;30;;;26;;
